METAR Data
IDs: Format: Raw Decoded Include TAF

Data at: 1947 UTC 26 Sep 2021

LRBS 261930Z 06004KT CAVOK 16/11 Q1020 NOSIG